sensor_id;sensor_type;location;lat;lon;timestamp;pressure;altitude;pressure_sealevel;temperature;humidity
62779;BME280;48821;48.796;2.396;2024-02-23T00:01:07;99500.16;;;8.69;63.61
62779;BME280;48821;48.796;2.396;2024-02-23T00:02:20;99500.97;;;8.70;63.67
62779;BME280;48821;48.796;2.396;2024-02-23T00:03:33;99506.94;;;8.73;63.67
62779;BME280;48821;48.796;2.396;2024-02-23T00:04:50;99499.28;;;8.69;63.32
62779;BME280;48821;48.796;2.396;2024-02-23T00:06:03;99510.63;;;8.69;63.33
62779;BME280;48821;48.796;2.396;2024-02-23T00:07:16;99506.16;;;8.71;63.48
62779;BME280;48821;48.796;2.396;2024-02-23T00:08:30;99498.44;;;8.68;63.34
62779;BME280;48821;48.796;2.396;2024-02-23T00:09:43;99497.66;;;8.66;63.48
62779;BME280;48821;48.796;2.396;2024-02-23T00:10:56;99508.91;;;8.68;63.34
62779;BME280;48821;48.796;2.396;2024-02-23T00:12:09;99511.75;;;8.63;63.31
62779;BME280;48821;48.796;2.396;2024-02-23T00:13:22;99520.38;;;8.65;63.00
62779;BME280;48821;48.796;2.396;2024-02-23T00:14:36;99517.03;;;8.62;63.42
62779;BME280;48821;48.796;2.396;2024-02-23T00:15:49;99515.22;;;8.64;63.31
62779;BME280;48821;48.796;2.396;2024-02-23T00:17:02;99514.28;;;8.65;63.83
62779;BME280;48821;48.796;2.396;2024-02-23T00:18:15;99509.16;;;8.62;64.06
62779;BME280;48821;48.796;2.396;2024-02-23T00:19:30;99517.75;;;8.65;63.85
62779;BME280;48821;48.796;2.396;2024-02-23T00:20:44;99508.34;;;8.61;63.86
62779;BME280;48821;48.796;2.396;2024-02-23T00:21:57;99515.28;;;8.62;63.23
62779;BME280;48821;48.796;2.396;2024-02-23T00:23:12;99510.19;;;8.59;63.61
62779;BME280;48821;48.796;2.396;2024-02-23T00:24:25;99517.09;;;8.60;63.39
62779;BME280;48821;48.796;2.396;2024-02-23T00:25:39;99518.94;;;8.58;63.86
62779;BME280;48821;48.796;2.396;2024-02-23T00:26:52;99520.69;;;8.58;63.64
62779;BME280;48821;48.796;2.396;2024-02-23T00:28:06;99520.75;;;8.56;63.69
62779;BME280;48821;48.796;2.396;2024-02-23T00:29:19;99515.53;;;8.56;63.68
62779;BME280;48821;48.796;2.396;2024-02-23T00:30:32;99511.19;;;8.55;63.99
62779;BME280;48821;48.796;2.396;2024-02-23T00:31:46;99516.50;;;8.53;63.54
62779;BME280;48821;48.796;2.396;2024-02-23T00:32:59;99507.72;;;8.54;63.51
62779;BME280;48821;48.796;2.396;2024-02-23T00:34:12;99517.19;;;8.57;63.66
62779;BME280;48821;48.796;2.396;2024-02-23T00:35:26;99515.66;;;8.53;63.75
62779;BME280;48821;48.796;2.396;2024-02-23T00:36:40;99519.19;;;8.52;63.45
62779;BME280;48821;48.796;2.396;2024-02-23T00:37:54;99512.34;;;8.49;63.65
62779;BME280;48821;48.796;2.396;2024-02-23T00:39:07;99510.53;;;8.50;63.77
62779;BME280;48821;48.796;2.396;2024-02-23T00:40:21;99514.09;;;8.49;63.28
62779;BME280;48821;48.796;2.396;2024-02-23T00:41:34;99521.00;;;8.50;64.28
62779;BME280;48821;48.796;2.396;2024-02-23T00:42:47;99516.72;;;8.49;63.78
62779;BME280;48821;48.796;2.396;2024-02-23T00:44:02;99515.78;;;8.50;63.25
62779;BME280;48821;48.796;2.396;2024-02-23T00:45:16;99516.63;;;8.50;63.51
62779;BME280;48821;48.796;2.396;2024-02-23T00:46:29;99513.25;;;8.48;63.61
62779;BME280;48821;48.796;2.396;2024-02-23T00:47:43;99522.72;;;8.51;64.31
62779;BME280;48821;48.796;2.396;2024-02-23T00:48:56;99515.84;;;8.48;63.95
62779;BME280;48821;48.796;2.396;2024-02-23T00:50:09;99521.88;;;8.50;64.29
62779;BME280;48821;48.796;2.396;2024-02-23T00:51:23;99519.34;;;8.49;63.93
62779;BME280;48821;48.796;2.396;2024-02-23T00:52:36;99525.25;;;8.52;63.85
62779;BME280;48821;48.796;2.396;2024-02-23T00:53:50;99523.59;;;8.51;64.19
62779;BME280;48821;48.796;2.396;2024-02-23T00:55:03;99522.72;;;8.51;64.30
62779;BME280;48821;48.796;2.396;2024-02-23T00:56:16;99518.34;;;8.51;64.45
62779;BME280;48821;48.796;2.396;2024-02-23T00:57:30;99530.38;;;8.55;63.99
62779;BME280;48821;48.796;2.396;2024-02-23T00:58:43;99518.19;;;8.54;64.26
62779;BME280;48821;48.796;2.396;2024-02-23T00:59:57;99523.31;;;8.58;64.52
62779;BME280;48821;48.796;2.396;2024-02-23T01:01:10;99525.13;;;8.55;64.41
62779;BME280;48821;48.796;2.396;2024-02-23T01:02:23;99517.97;;;8.61;64.26
62779;BME280;48821;48.796;2.396;2024-02-23T01:03:36;99526.72;;;8.60;64.59
62779;BME280;48821;48.796;2.396;2024-02-23T01:04:49;99533.56;;;8.64;64.14
62779;BME280;48821;48.796;2.396;2024-02-23T01:06:03;99510.97;;;8.61;63.64
62779;BME280;48821;48.796;2.396;2024-02-23T01:07:16;99513.59;;;8.61;64.01
62779;BME280;48821;48.796;2.396;2024-02-23T01:08:29;99527.38;;;8.65;63.99
62779;BME280;48821;48.796;2.396;2024-02-23T01:09:42;99514.41;;;8.62;64.05
62779;BME280;48821;48.796;2.396;2024-02-23T01:10:56;99516.91;;;8.65;64.42
62779;BME280;48821;48.796;2.396;2024-02-23T01:12:09;99509.03;;;8.65;63.74
62779;BME280;48821;48.796;2.396;2024-02-23T01:13:22;99512.59;;;8.64;64.45
62779;BME280;48821;48.796;2.396;2024-02-23T01:14:35;99500.31;;;8.64;64.54
62779;BME280;48821;48.796;2.396;2024-02-23T01:15:48;99504.59;;;8.67;64.65
62779;BME280;48821;48.796;2.396;2024-02-23T01:17:02;99500.97;;;8.70;64.47
62779;BME280;48821;48.796;2.396;2024-02-23T01:18:15;99495.72;;;8.70;64.72
62779;BME280;48821;48.796;2.396;2024-02-23T01:19:28;99499.00;;;8.75;64.96
62779;BME280;48821;48.796;2.396;2024-02-23T01:20:41;99492.06;;;8.74;64.83
62779;BME280;48821;48.796;2.396;2024-02-23T01:21:55;99492.84;;;8.76;64.60
62779;BME280;48821;48.796;2.396;2024-02-23T01:23:12;99502.25;;;8.80;64.32
62779;BME280;48821;48.796;2.396;2024-02-23T01:24:28;99484.84;;;8.79;64.55
62779;BME280;48821;48.796;2.396;2024-02-23T01:25:42;99490.06;;;8.79;64.38
62779;BME280;48821;48.796;2.396;2024-02-23T01:26:55;99489.03;;;8.83;63.99
62779;BME280;48821;48.796;2.396;2024-02-23T01:28:09;99493.41;;;8.83;64.47
62779;BME280;48821;48.796;2.396;2024-02-23T01:29:22;99490.94;;;8.80;64.27
62779;BME280;48821;48.796;2.396;2024-02-23T01:30:35;99486.53;;;8.80;64.19
62779;BME280;48821;48.796;2.396;2024-02-23T01:31:48;99486.47;;;8.82;64.54
62779;BME280;48821;48.796;2.396;2024-02-23T01:33:02;99489.88;;;8.84;64.00
62779;BME280;48821;48.796;2.396;2024-02-23T01:34:15;99481.22;;;8.82;64.17
62779;BME280;48821;48.796;2.396;2024-02-23T01:35:28;99483.78;;;8.83;63.87
62779;BME280;48821;48.796;2.396;2024-02-23T01:36:43;99477.78;;;8.81;63.70
62779;BME280;48821;48.796;2.396;2024-02-23T01:37:56;99478.69;;;8.80;64.11
62779;BME280;48821;48.796;2.396;2024-02-23T01:39:10;99477.78;;;8.81;64.02
62779;BME280;48821;48.796;2.396;2024-02-23T01:40:24;99478.69;;;8.80;64.01
62779;BME280;48821;48.796;2.396;2024-02-23T01:41:37;99478.59;;;8.82;64.02
62779;BME280;48821;48.796;2.396;2024-02-23T01:43:03;99479.47;;;8.82;64.31
62779;BME280;48821;48.796;2.396;2024-02-23T01:44:17;99479.31;;;8.85;64.05
62779;BME280;48821;48.796;2.396;2024-02-23T01:45:31;99465.44;;;8.83;64.22
62779;BME280;48821;48.796;2.396;2024-02-23T01:46:45;99466.34;;;8.82;64.16
62779;BME280;48821;48.796;2.396;2024-02-23T01:47:59;99468.94;;;8.84;64.27
62779;BME280;48821;48.796;2.396;2024-02-23T01:49:13;99461.06;;;8.84;64.32
62779;BME280;48821;48.796;2.396;2024-02-23T01:50:27;99454.13;;;8.83;64.47
62779;BME280;48821;48.796;2.396;2024-02-23T01:51:40;99465.31;;;8.86;64.35
62779;BME280;48821;48.796;2.396;2024-02-23T01:52:56;99460.00;;;8.88;64.58
62779;BME280;48821;48.796;2.396;2024-02-23T01:54:10;99459.13;;;8.87;63.90
62779;BME280;48821;48.796;2.396;2024-02-23T01:55:23;99468.53;;;8.92;64.21
62779;BME280;48821;48.796;2.396;2024-02-23T01:56:37;99465.22;;;8.88;64.26
62779;BME280;48821;48.796;2.396;2024-02-23T01:57:52;99461.75;;;8.87;63.51
62779;BME280;48821;48.796;2.396;2024-02-23T01:59:07;99467.00;;;8.87;63.89
62779;BME280;48821;48.796;2.396;2024-02-23T02:00:23;99462.63;;;8.88;63.89
62779;BME280;48821;48.796;2.396;2024-02-23T02:01:37;99466.00;;;8.90;64.15
62779;BME280;48821;48.796;2.396;2024-02-23T02:02:50;99468.50;;;8.93;64.18
62779;BME280;48821;48.796;2.396;2024-02-23T02:04:03;99460.75;;;8.90;64.18
62779;BME280;48821;48.796;2.396;2024-02-23T02:05:16;99454.66;;;8.89;63.91
62779;BME280;48821;48.796;2.396;2024-02-23T02:06:30;99459.69;;;8.94;64.09
62779;BME280;48821;48.796;2.396;2024-02-23T02:07:45;99459.84;;;8.91;63.72
62779;BME280;48821;48.796;2.396;2024-02-23T02:08:59;99459.69;;;8.94;64.21
62779;BME280;48821;48.796;2.396;2024-02-23T02:10:13;99452.00;;;8.91;64.19
62779;BME280;48821;48.796;2.396;2024-02-23T02:11:26;99450.16;;;8.93;63.66
62779;BME280;48821;48.796;2.396;2024-02-23T02:12:39;99442.56;;;8.87;63.78
62779;BME280;48821;48.796;2.396;2024-02-23T02:13:53;99450.28;;;8.90;63.22
62779;BME280;48821;48.796;2.396;2024-02-23T02:15:06;99445.34;;;8.84;63.90
62779;BME280;48821;48.796;2.396;2024-02-23T02:16:20;99444.53;;;8.82;63.95
62779;BME280;48821;48.796;2.396;2024-02-23T02:17:33;99447.16;;;8.82;63.96
62779;BME280;48821;48.796;2.396;2024-02-23T02:18:46;99450.72;;;8.81;63.72
62779;BME280;48821;48.796;2.396;2024-02-23T02:20:02;99454.13;;;8.83;63.66
62779;BME280;48821;48.796;2.396;2024-02-23T02:21:17;99453.38;;;8.79;64.32
62779;BME280;48821;48.796;2.396;2024-02-23T02:22:34;99456.00;;;8.79;64.02
62779;BME280;48821;48.796;2.396;2024-02-23T02:23:47;99447.09;;;8.83;63.89
62779;BME280;48821;48.796;2.396;2024-02-23T02:25:01;99441.22;;;8.78;64.08
62779;BME280;48821;48.796;2.396;2024-02-23T02:26:14;99446.25;;;8.83;64.04
62779;BME280;48821;48.796;2.396;2024-02-23T02:27:27;99440.28;;;8.79;64.29
62779;BME280;48821;48.796;2.396;2024-02-23T02:28:40;99443.63;;;8.83;64.13
62779;BME280;48821;48.796;2.396;2024-02-23T02:29:53;99439.47;;;8.78;64.00
62779;BME280;48821;48.796;2.396;2024-02-23T02:31:07;99448.16;;;8.79;64.18
62779;BME280;48821;48.796;2.396;2024-02-23T02:32:20;99437.75;;;8.77;63.79
62779;BME280;48821;48.796;2.396;2024-02-23T02:33:33;99435.13;;;8.77;64.30
62779;BME280;48821;48.796;2.396;2024-02-23T02:34:46;99436.00;;;8.78;63.75
62779;BME280;48821;48.796;2.396;2024-02-23T02:35:59;99424.66;;;8.77;64.20
62779;BME280;48821;48.796;2.396;2024-02-23T02:37:13;99424.44;;;8.82;64.23
62779;BME280;48821;48.796;2.396;2024-02-23T02:38:26;99429.75;;;8.81;63.96
62779;BME280;48821;48.796;2.396;2024-02-23T02:39:39;99429.63;;;8.84;64.00
62779;BME280;48821;48.796;2.396;2024-02-23T02:40:52;99430.53;;;8.83;63.81
62779;BME280;48821;48.796;2.396;2024-02-23T02:42:06;99419.97;;;8.84;64.32
62779;BME280;48821;48.796;2.396;2024-02-23T02:43:19;99435.63;;;8.86;64.46
62779;BME280;48821;48.796;2.396;2024-02-23T02:44:32;99415.53;;;8.86;64.23
62779;BME280;48821;48.796;2.396;2024-02-23T02:45:45;99425.16;;;8.86;64.21
62779;BME280;48821;48.796;2.396;2024-02-23T02:46:59;99419.81;;;8.87;64.11
62779;BME280;48821;48.796;2.396;2024-02-23T02:48:12;99416.34;;;8.87;63.72
62779;BME280;48821;48.796;2.396;2024-02-23T02:49:25;99415.44;;;8.88;64.14
62779;BME280;48821;48.796;2.396;2024-02-23T02:50:38;99425.84;;;8.89;63.61
62779;BME280;48821;48.796;2.396;2024-02-23T02:51:52;99410.22;;;8.88;63.93
62779;BME280;48821;48.796;2.396;2024-02-23T02:53:05;99415.38;;;8.89;63.76
62779;BME280;48821;48.796;2.396;2024-02-23T02:54:18;99418.97;;;8.87;63.99
62779;BME280;48821;48.796;2.396;2024-02-23T02:55:31;99423.22;;;8.89;63.96
62779;BME280;48821;48.796;2.396;2024-02-23T02:56:47;99418.97;;;8.87;63.49
62779;BME280;48821;48.796;2.396;2024-02-23T02:58:01;99413.91;;;8.84;63.74
62779;BME280;48821;48.796;2.396;2024-02-23T02:59:14;99417.34;;;8.84;63.78
62779;BME280;48821;48.796;2.396;2024-02-23T03:00:27;99408.72;;;8.82;63.22
62779;BME280;48821;48.796;2.396;2024-02-23T03:01:41;99413.91;;;8.84;63.31
62779;BME280;48821;48.796;2.396;2024-02-23T03:02:54;99400.84;;;8.82;63.52
62779;BME280;48821;48.796;2.396;2024-02-23T03:04:08;99406.19;;;8.81;64.05
62779;BME280;48821;48.796;2.396;2024-02-23T03:05:21;99403.69;;;8.77;64.04
62779;BME280;48821;48.796;2.396;2024-02-23T03:06:34;99399.16;;;8.81;63.91
62779;BME280;48821;48.796;2.396;2024-02-23T03:07:47;99394.16;;;8.76;63.71
62779;BME280;48821;48.796;2.396;2024-02-23T03:09:01;99393.97;;;8.80;64.06
62779;BME280;48821;48.796;2.396;2024-02-23T03:10:15;99386.34;;;8.75;63.92
62779;BME280;48821;48.796;2.396;2024-02-23T03:11:28;99396.06;;;8.73;63.72
62779;BME280;48821;48.796;2.396;2024-02-23T03:12:41;99396.91;;;8.73;63.82
62779;BME280;48821;48.796;2.396;2024-02-23T03:13:55;99396.13;;;8.71;63.99
62779;BME280;48821;48.796;2.396;2024-02-23T03:15:08;99382.41;;;8.66;64.11
62779;BME280;48821;48.796;2.396;2024-02-23T03:16:23;99397.97;;;8.69;64.17
62779;BME280;48821;48.796;2.396;2024-02-23T03:17:38;99395.50;;;8.66;63.93
62779;BME280;48821;48.796;2.396;2024-02-23T03:18:52;99392.94;;;8.64;63.75
62779;BME280;48821;48.796;2.396;2024-02-23T03:20:07;99393.91;;;8.62;63.57
62779;BME280;48821;48.796;2.396;2024-02-23T03:21:24;99391.38;;;8.60;63.95
62779;BME280;48821;48.796;2.396;2024-02-23T03:22:37;99395.78;;;8.60;63.86
62779;BME280;48821;48.796;2.396;2024-02-23T03:23:51;99387.09;;;8.58;64.11
62779;BME280;48821;48.796;2.396;2024-02-23T03:25:04;99383.72;;;8.55;63.46
62779;BME280;48821;48.796;2.396;2024-02-23T03:26:21;99381.09;;;8.55;63.65
62779;BME280;48821;48.796;2.396;2024-02-23T03:27:36;99387.41;;;8.51;64.01
62779;BME280;48821;48.796;2.396;2024-02-23T03:28:49;99372.69;;;8.49;63.66
62779;BME280;48821;48.796;2.396;2024-02-23T03:30:03;99375.34;;;8.47;63.83
62779;BME280;48821;48.796;2.396;2024-02-23T03:31:18;99377.97;;;8.47;64.27
62779;BME280;48821;48.796;2.396;2024-02-23T03:32:31;99372.69;;;8.49;64.19
62779;BME280;48821;48.796;2.396;2024-02-23T03:33:49;99377.97;;;8.47;64.02
62779;BME280;48821;48.796;2.396;2024-02-23T03:35:03;99367.56;;;8.46;64.40
62779;BME280;48821;48.796;2.396;2024-02-23T03:36:17;99359.09;;;8.40;64.07
62779;BME280;48821;48.796;2.396;2024-02-23T03:37:30;99351.19;;;8.42;64.47
62779;BME280;48821;48.796;2.396;2024-02-23T03:38:43;99354.78;;;8.39;64.02
62779;BME280;48821;48.796;2.396;2024-02-23T03:39:56;99363.47;;;8.40;64.57
62779;BME280;48821;48.796;2.396;2024-02-23T03:41:09;99359.22;;;8.37;64.16
62779;BME280;48821;48.796;2.396;2024-02-23T03:42:22;99346.19;;;8.36;64.42
62779;BME280;48821;48.796;2.396;2024-02-23T03:43:36;99343.66;;;8.34;64.18
62779;BME280;48821;48.796;2.396;2024-02-23T03:44:51;99343.72;;;8.32;64.69
62779;BME280;48821;48.796;2.396;2024-02-23T03:46:05;99339.25;;;8.35;64.22
62779;BME280;48821;48.796;2.396;2024-02-23T03:47:19;99336.72;;;8.33;64.97
62779;BME280;48821;48.796;2.396;2024-02-23T03:48:32;99340.97;;;8.36;64.45
62779;BME280;48821;48.796;2.396;2024-02-23T03:49:45;99325.41;;;8.32;64.36
62779;BME280;48821;48.796;2.396;2024-02-23T03:50:58;99321.78;;;8.35;64.53
62779;BME280;48821;48.796;2.396;2024-02-23T03:52:11;99328.09;;;8.31;64.73
62779;BME280;48821;48.796;2.396;2024-02-23T03:53:25;99322.78;;;8.32;64.65
62779;BME280;48821;48.796;2.396;2024-02-23T03:54:38;99329.72;;;8.33;64.60
62779;BME280;48821;48.796;2.396;2024-02-23T03:55:51;99326.34;;;8.31;64.49
62779;BME280;48821;48.796;2.396;2024-02-23T03:57:04;99325.41;;;8.32;64.55
62779;BME280;48821;48.796;2.396;2024-02-23T03:58:17;99319.34;;;8.32;64.45
62779;BME280;48821;48.796;2.396;2024-02-23T03:59:31;99322.84;;;8.31;64.49
62779;BME280;48821;48.796;2.396;2024-02-23T04:00:44;99317.75;;;8.28;64.71
62779;BME280;48821;48.796;2.396;2024-02-23T04:01:57;99316.13;;;8.25;64.89
62779;BME280;48821;48.796;2.396;2024-02-23T04:03:10;99315.22;;;8.26;65.06
62779;BME280;48821;48.796;2.396;2024-02-23T04:04:23;99303.03;;;8.25;64.80
62779;BME280;48821;48.796;2.396;2024-02-23T04:05:37;99310.88;;;8.25;64.86
62779;BME280;48821;48.796;2.396;2024-02-23T04:06:50;99311.75;;;8.26;64.86
62779;BME280;48821;48.796;2.396;2024-02-23T04:08:03;99307.59;;;8.21;64.89
62779;BME280;48821;48.796;2.396;2024-02-23T04:09:17;99306.72;;;8.21;64.96
62779;BME280;48821;48.796;2.396;2024-02-23T04:10:30;99308.44;;;8.22;64.81
62779;BME280;48821;48.796;2.396;2024-02-23T04:11:43;99309.25;;;8.22;65.11
62779;BME280;48821;48.796;2.396;2024-02-23T04:12:57;99297.97;;;8.22;64.95
62779;BME280;48821;48.796;2.396;2024-02-23T04:14:11;99303.19;;;8.22;65.55
62779;BME280;48821;48.796;2.396;2024-02-23T04:15:24;99309.34;;;8.21;65.24
62779;BME280;48821;48.796;2.396;2024-02-23T04:16:37;99299.78;;;8.20;65.38
62779;BME280;48821;48.796;2.396;2024-02-23T04:17:50;99300.63;;;8.20;65.02
62779;BME280;48821;48.796;2.396;2024-02-23T04:19:03;99305.03;;;8.20;64.94
62779;BME280;48821;48.796;2.396;2024-02-23T04:20:16;99311.97;;;8.21;65.05
62779;BME280;48821;48.796;2.396;2024-02-23T04:21:30;99306.84;;;8.18;65.04
62779;BME280;48821;48.796;2.396;2024-02-23T04:22:44;99309.47;;;8.18;65.06
62779;BME280;48821;48.796;2.396;2024-02-23T04:23:57;99310.25;;;8.20;64.89
62779;BME280;48821;48.796;2.396;2024-02-23T04:25:11;99306.84;;;8.18;64.88
62779;BME280;48821;48.796;2.396;2024-02-23T04:26:24;99310.25;;;8.20;65.16
62779;BME280;48821;48.796;2.396;2024-02-23T04:27:37;99303.47;;;8.16;64.80
62779;BME280;48821;48.796;2.396;2024-02-23T04:28:50;99306.81;;;8.19;64.99
62779;BME280;48821;48.796;2.396;2024-02-23T04:30:04;99301.72;;;8.16;65.17
62779;BME280;48821;48.796;2.396;2024-02-23T04:31:17;99303.47;;;8.16;65.09
62779;BME280;48821;48.796;2.396;2024-02-23T04:32:31;99300.94;;;8.14;65.53
62779;BME280;48821;48.796;2.396;2024-02-23T04:33:44;99308.72;;;8.16;65.02
62779;BME280;48821;48.796;2.396;2024-02-23T04:34:57;99315.78;;;8.14;65.35
62779;BME280;48821;48.796;2.396;2024-02-23T04:36:10;99305.31;;;8.14;65.34
62779;BME280;48821;48.796;2.396;2024-02-23T04:37:23;99306.09;;;8.16;65.33
62779;BME280;48821;48.796;2.396;2024-02-23T04:38:37;99309.56;;;8.16;65.32
62779;BME280;48821;48.796;2.396;2024-02-23T04:39:50;99298.38;;;8.13;64.91
62779;BME280;48821;48.796;2.396;2024-02-23T04:41:03;99311.47;;;8.13;65.34
62779;BME280;48821;48.796;2.396;2024-02-23T04:42:17;99310.56;;;8.14;65.31
62779;BME280;48821;48.796;2.396;2024-02-23T04:43:31;99308.00;;;8.12;65.26
62779;BME280;48821;48.796;2.396;2024-02-23T04:44:44;99308.72;;;8.16;65.71
62779;BME280;48821;48.796;2.396;2024-02-23T04:45:58;99302.78;;;8.12;65.48
62779;BME280;48821;48.796;2.396;2024-02-23T04:47:12;99304.47;;;8.13;65.14
62779;BME280;48821;48.796;2.396;2024-02-23T04:48:25;99312.25;;;8.15;65.43
62779;BME280;48821;48.796;2.396;2024-02-23T04:49:38;99308.00;;;8.12;65.21
62779;BME280;48821;48.796;2.396;2024-02-23T04:50:52;99306.22;;;8.13;65.25
62779;BME280;48821;48.796;2.396;2024-02-23T04:52:05;99323.56;;;8.15;65.70
62779;BME280;48821;48.796;2.396;2024-02-23T04:53:18;99310.63;;;8.12;65.46
62779;BME280;48821;48.796;2.396;2024-02-23T04:54:32;99305.41;;;8.12;65.46
62779;BME280;48821;48.796;2.396;2024-02-23T04:55:45;99303.69;;;8.11;65.36
62779;BME280;48821;48.796;2.396;2024-02-23T04:56:58;99299.31;;;8.12;65.13
62779;BME280;48821;48.796;2.396;2024-02-23T04:58:12;99305.44;;;8.10;65.16
62779;BME280;48821;48.796;2.396;2024-02-23T04:59:25;99301.16;;;8.09;65.42
62779;BME280;48821;48.796;2.396;2024-02-23T05:00:38;99309.00;;;8.09;65.25
62779;BME280;48821;48.796;2.396;2024-02-23T05:01:51;99302.06;;;8.08;65.19
62779;BME280;48821;48.796;2.396;2024-02-23T05:03:05;99307.28;;;8.08;65.26
62779;BME280;48821;48.796;2.396;2024-02-23T05:04:19;99309.81;;;8.10;65.06
62779;BME280;48821;48.796;2.396;2024-02-23T05:05:32;99303.81;;;8.08;65.37
62779;BME280;48821;48.796;2.396;2024-02-23T05:06:46;99316.91;;;8.08;65.53
62779;BME280;48821;48.796;2.396;2024-02-23T05:07:59;99312.59;;;8.07;65.59
62779;BME280;48821;48.796;2.396;2024-02-23T05:09:12;99310.84;;;8.07;65.06
62779;BME280;48821;48.796;2.396;2024-02-23T05:10:25;99312.59;;;8.07;65.63
62779;BME280;48821;48.796;2.396;2024-02-23T05:11:39;99317.75;;;8.08;65.27
62779;BME280;48821;48.796;2.396;2024-02-23T05:12:52;99309.25;;;8.03;65.76
62779;BME280;48821;48.796;2.396;2024-02-23T05:14:05;99317.06;;;8.05;65.68
62779;BME280;48821;48.796;2.396;2024-02-23T05:15:19;99317.13;;;8.03;65.71
62779;BME280;48821;48.796;2.396;2024-02-23T05:16:32;99317.13;;;8.03;65.43
62779;BME280;48821;48.796;2.396;2024-02-23T05:17:45;99314.38;;;8.06;65.64
62779;BME280;48821;48.796;2.396;2024-02-23T05:18:58;99318.81;;;8.04;65.29
62779;BME280;48821;48.796;2.396;2024-02-23T05:20:12;99311.09;;;8.01;65.32
62779;BME280;48821;48.796;2.396;2024-02-23T05:21:25;99304.09;;;8.02;65.26
62779;BME280;48821;48.796;2.396;2024-02-23T05:22:39;99314.44;;;8.05;65.38
62779;BME280;48821;48.796;2.396;2024-02-23T05:23:53;99315.44;;;8.02;65.72
62779;BME280;48821;48.796;2.396;2024-02-23T05:25:06;99313.72;;;8.01;65.61
62779;BME280;48821;48.796;2.396;2024-02-23T05:26:19;99313.72;;;8.01;65.40
62779;BME280;48821;48.796;2.396;2024-02-23T05:27:33;99310.19;;;8.02;65.07
62779;BME280;48821;48.796;2.396;2024-02-23T05:28:46;99309.34;;;8.02;65.46
62779;BME280;48821;48.796;2.396;2024-02-23T05:29:59;99307.72;;;7.99;65.85
62779;BME280;48821;48.796;2.396;2024-02-23T05:31:13;99320.72;;;8.01;65.12
62779;BME280;48821;48.796;2.396;2024-02-23T05:32:26;99316.47;;;7.98;65.73
62779;BME280;48821;48.796;2.396;2024-02-23T05:33:39;99314.78;;;7.97;65.80
62779;BME280;48821;48.796;2.396;2024-02-23T05:34:52;99319.03;;;7.99;64.89
62779;BME280;48821;48.796;2.396;2024-02-23T05:36:07;99315.78;;;7.94;65.31
62779;BME280;48821;48.796;2.396;2024-02-23T05:37:20;99319.28;;;7.93;65.91
62779;BME280;48821;48.796;2.396;2024-02-23T05:38:33;99321.91;;;7.93;65.77
62779;BME280;48821;48.796;2.396;2024-02-23T05:39:46;99323.66;;;7.93;65.50
62779;BME280;48821;48.796;2.396;2024-02-23T05:41:00;99326.38;;;7.91;65.47
62779;BME280;48821;48.796;2.396;2024-02-23T05:42:13;99316.84;;;7.90;65.38
62779;BME280;48821;48.796;2.396;2024-02-23T05:43:27;99317.75;;;7.89;65.48
62779;BME280;48821;48.796;2.396;2024-02-23T05:44:43;99325.59;;;7.89;65.55
62779;BME280;48821;48.796;2.396;2024-02-23T05:45:57;99322.91;;;7.91;65.73
62779;BME280;48821;48.796;2.396;2024-02-23T05:47:11;99318.53;;;7.91;65.39
62779;BME280;48821;48.796;2.396;2024-02-23T05:48:26;99333.22;;;7.94;65.60
62779;BME280;48821;48.796;2.396;2024-02-23T05:49:40;99318.59;;;7.90;65.77
62779;BME280;48821;48.796;2.396;2024-02-23T05:50:53;99323.84;;;7.90;65.58
62779;BME280;48821;48.796;2.396;2024-02-23T05:52:06;99319.47;;;7.90;66.07
62779;BME280;48821;48.796;2.396;2024-02-23T05:53:19;99322.84;;;7.92;65.83
62779;BME280;48821;48.796;2.396;2024-02-23T05:54:32;99322.84;;;7.92;65.64
62779;BME280;48821;48.796;2.396;2024-02-23T05:55:46;99321.91;;;7.93;65.92
62779;BME280;48821;48.796;2.396;2024-02-23T05:56:59;99319.25;;;7.95;65.91
62779;BME280;48821;48.796;2.396;2024-02-23T05:58:12;99326.94;;;7.98;65.76
62779;BME280;48821;48.796;2.396;2024-02-23T05:59:26;99325.09;;;8.00;65.53
62779;BME280;48821;48.796;2.396;2024-02-23T06:00:40;99319.94;;;7.98;65.97
62779;BME280;48821;48.796;2.396;2024-02-23T06:01:53;99330.31;;;8.00;65.75
62779;BME280;48821;48.796;2.396;2024-02-23T06:03:09;99320.72;;;8.01;66.05
62779;BME280;48821;48.796;2.396;2024-02-23T06:04:23;99320.47;;;8.07;65.50
62779;BME280;48821;48.796;2.396;2024-02-23T06:05:36;99312.81;;;8.02;65.47
62779;BME280;48821;48.796;2.396;2024-02-23T06:06:50;99318.75;;;8.06;65.62
62779;BME280;48821;48.796;2.396;2024-02-23T06:08:04;99311.88;;;8.03;65.71
62779;BME280;48821;48.796;2.396;2024-02-23T06:09:17;99311.88;;;8.03;65.80
62779;BME280;48821;48.796;2.396;2024-02-23T06:10:31;99307.59;;;8.02;65.93
62779;BME280;48821;48.796;2.396;2024-02-23T06:11:45;99315.34;;;8.04;66.21
62779;BME280;48821;48.796;2.396;2024-02-23T06:12:58;99305.88;;;8.01;66.22
62779;BME280;48821;48.796;2.396;2024-02-23T06:14:11;99300.63;;;8.01;66.09
62779;BME280;48821;48.796;2.396;2024-02-23T06:15:24;99304.09;;;8.02;66.06
62779;BME280;48821;48.796;2.396;2024-02-23T06:16:37;99302.34;;;8.02;65.85
62779;BME280;48821;48.796;2.396;2024-02-23T06:17:51;99301.53;;;8.00;65.41
62779;BME280;48821;48.796;2.396;2024-02-23T06:19:04;99310.97;;;8.04;65.66
62779;BME280;48821;48.796;2.396;2024-02-23T06:20:17;99310.97;;;8.04;65.96
62779;BME280;48821;48.796;2.396;2024-02-23T06:21:30;99308.41;;;8.03;66.21
62779;BME280;48821;48.796;2.396;2024-02-23T06:22:45;99299.78;;;8.01;65.63
62779;BME280;48821;48.796;2.396;2024-02-23T06:23:58;99307.59;;;8.02;65.80
62779;BME280;48821;48.796;2.396;2024-02-23T06:25:11;99298.75;;;8.05;66.17
62779;BME280;48821;48.796;2.396;2024-02-23T06:26:25;99296.25;;;8.02;65.58
62779;BME280;48821;48.796;2.396;2024-02-23T06:27:38;99305.78;;;8.03;65.66
62779;BME280;48821;48.796;2.396;2024-02-23T06:28:52;99303.19;;;8.03;66.04
62779;BME280;48821;48.796;2.396;2024-02-23T06:30:05;99297.13;;;8.02;65.95
62779;BME280;48821;48.796;2.396;2024-02-23T06:31:19;99296.19;;;8.03;65.94
62779;BME280;48821;48.796;2.396;2024-02-23T06:32:32;99291.88;;;8.02;66.17
62779;BME280;48821;48.796;2.396;2024-02-23T06:33:45;99292.78;;;8.01;65.91
62779;BME280;48821;48.796;2.396;2024-02-23T06:35:02;99284.94;;;8.01;65.54